Wetterdaten: aktuell Mittwoch, 02.09.2026 10:31
Datum Zeit Temp. A. Feuchte A. Luftdruck Regen Wind Richtung Richtung Taupunkt Windchill
02.09.2026 10:31 19,5 °C 59 % 1014,1 hPa 0,0 l/m² 2,7 km/h (1 Bft) SO 140 ° 11,3 °C 19,5 °C
02.09.2026 10:29 19,4 °C 61 % 1014,1 hPa 0,0 l/m² 2,7 km/h (1 Bft) SO 140 ° 11,7 °C 19,4 °C
02.09.2026 10:27 19,3 °C 63 % 1014,1 hPa 0,0 l/m² 0,1 km/h (0 Bft) SO 140 ° 12,1 °C 19,3 °C
02.09.2026 10:24 19,3 °C 63 % 1014,1 hPa 0,0 l/m² 0,7 km/h (0 Bft) SO 145 ° 12,1 °C 19,3 °C
02.09.2026 10:22 19,1 °C 63 % 1014,1 hPa 0,0 l/m² 1,7 km/h (1 Bft) S-SO 150 ° 11,9 °C 19,1 °C
02.09.2026 10:20 18,9 °C 63 % 1014,1 hPa 0,0 l/m² 1,7 km/h (1 Bft) S-SO 150 ° 11,7 °C 18,9 °C
02.09.2026 10:18 18,6 °C 64 % 1014,1 hPa 0,0 l/m² 2,3 km/h (1 Bft) S-SO 150 ° 11,7 °C 18,6 °C
02.09.2026 10:16 18,6 °C 64 % 1014,1 hPa 0,0 l/m² 3,4 km/h (1 Bft) S-SO 150 ° 11,7 °C 18,6 °C
02.09.2026 10:14 18,4 °C 64 % 1014,2 hPa 0,0 l/m² 3,4 km/h (1 Bft) S-SO 150 ° 11,5 °C 18,4 °C
02.09.2026 10:12 18,2 °C 66 % 1014,2 hPa 0,0 l/m² 0,8 km/h (0 Bft) S-SO 155 ° 11,7 °C 18,2 °C
02.09.2026 10:10 18,2 °C 66 % 1014,2 hPa 0,0 l/m² 3,4 km/h (1 Bft) S-SO 155 ° 11,7 °C 18,2 °C
02.09.2026 10:09 17,9 °C 67 % 1014,2 hPa 0,0 l/m² 1,7 km/h (1 Bft) S-SO 150 ° 11,7 °C 17,9 °C
02.09.2026 10:07 17,7 °C 67 % 1014,2 hPa 0,0 l/m² 1,7 km/h (1 Bft) S-SO 150 ° 11,5 °C 17,7 °C
02.09.2026 10:05 17,7 °C 67 % 1014,2 hPa 0,0 l/m² 0,1 km/h (0 Bft) SO 145 ° 11,5 °C 17,7 °C
02.09.2026 10:03 17,4 °C 67 % 1014,2 hPa 0,0 l/m² 3,4 km/h (1 Bft) SO 145 ° 11,2 °C 17,4 °C
02.09.2026 10:01 17,3 °C 67 % 1014,2 hPa 0,0 l/m² 0,0 km/h (0 Bft) SO 140 ° 11,1 °C 17,3 °C
02.09.2026 09:59 17,3 °C 67 % 1014,2 hPa 0,0 l/m² 0,0 km/h (0 Bft) SO 140 ° 11,1 °C 17,3 °C
02.09.2026 09:57 17,2 °C 67 % 1014,2 hPa 0,0 l/m² 0,2 km/h (0 Bft) SO 140 ° 11,0 °C 17,2 °C
02.09.2026 09:55 17,1 °C 69 % 1014,2 hPa 0,0 l/m² 1,0 km/h (0 Bft) SO±22.5° 135 ° 11,4 °C 17,1 °C
02.09.2026 09:53 17,1 °C 69 % 1014,2 hPa 0,0 l/m² 1,0 km/h (0 Bft) SO±22.5° 135 ° 11,4 °C 17,1 °C
02.09.2026 09:51 16,9 °C 70 % 1014,2 hPa 0,0 l/m² 0,0 km/h (0 Bft) O-SO 120 ° 11,4 °C 16,9 °C
02.09.2026 09:49 16,9 °C 70 % 1014,2 hPa 0,0 l/m² 0,4 km/h (0 Bft) O-SO 120 ° 11,4 °C 16,9 °C
02.09.2026 09:47 16,9 °C 70 % 1014,2 hPa 0,0 l/m² 0,9 km/h (0 Bft) SO 125 ° 11,4 °C 16,9 °C
02.09.2026 09:45 16,7 °C 70 % 1014,2 hPa 0,0 l/m² 0,9 km/h (0 Bft) SO 125 ° 11,2 °C 16,7 °C
02.09.2026 09:43 16,6 °C 71 % 1014,2 hPa 0,0 l/m² 2,4 km/h (1 Bft) SO 130 ° 11,3 °C 16,6 °C
02.09.2026 09:41 16,6 °C 71 % 1014,2 hPa 0,0 l/m² 0,0 km/h (0 Bft) SO 130 ° 11,3 °C 16,6 °C
02.09.2026 09:38 16,5 °C 72 % 1014,2 hPa 0,0 l/m² 0,0 km/h (0 Bft) SO 125 ° 11,4 °C 16,5 °C
02.09.2026 09:36 16,4 °C 73 % 1014,2 hPa 0,0 l/m² 0,0 km/h (0 Bft) SO 125 ° 11,5 °C 16,4 °C
02.09.2026 09:34 16,4 °C 73 % 1014,2 hPa 0,0 l/m² 0,8 km/h (0 Bft) SO 130 ° 11,5 °C 16,4 °C
02.09.2026 09:32 16,2 °C 73 % 1014,3 hPa 0,0 l/m² 0,8 km/h (0 Bft) SO 130 ° 11,4 °C 16,2 °C
02.09.2026 09:30 16,0 °C 73 % 1014,3 hPa 0,0 l/m² 0,8 km/h (0 Bft) SO 130 ° 11,2 °C 16,0 °C
02.09.2026 09:28 16,0 °C 73 % 1014,3 hPa 0,0 l/m² 0,4 km/h (0 Bft) SO 130 ° 11,2 °C 16,0 °C
02.09.2026 09:26 16,0 °C 73 % 1014,3 hPa 0,0 l/m² 0,4 km/h (0 Bft) SO 130 ° 11,2 °C 16,0 °C
02.09.2026 09:25 15,9 °C 73 % 1014,3 hPa 0,0 l/m² 0,6 km/h (0 Bft) SO 130 ° 11,1 °C 15,9 °C
02.09.2026 09:23 15,8 °C 74 % 1014,3 hPa 0,0 l/m² 0,6 km/h (0 Bft) SO 130 ° 11,2 °C 15,8 °C
02.09.2026 09:21 15,8 °C 74 % 1014,3 hPa 0,0 l/m² 0,0 km/h (0 Bft) SO 130 ° 11,2 °C 15,8 °C
02.09.2026 09:19 15,8 °C 74 % 1013,3 hPa 0,0 l/m² 0,0 km/h (0 Bft) SO 130 ° 11,2 °C 15,8 °C
02.09.2026 09:17 15,7 °C 74 % 1013,3 hPa 0,0 l/m² 0,3 km/h (0 Bft) SO 130 ° 11,1 °C 15,7 °C
02.09.2026 09:15 15,7 °C 74 % 1013,3 hPa 0,0 l/m² 0,3 km/h (0 Bft) SO 130 ° 11,1 °C 15,7 °C
02.09.2026 09:13 15,7 °C 74 % 1013,3 hPa 0,0 l/m² 0,0 km/h (0 Bft) SO 130 ° 11,1 °C 15,7 °C
02.09.2026 09:11 15,5 °C 75 % 1013,3 hPa 0,0 l/m² 0,0 km/h (0 Bft) SO 125 ° 11,1 °C 15,5 °C
_ Min-Zeit 07:36 00:01 03:03 - 00:01 - - 00:06 07:36
Minimum _ 13,8 °C 58 % 1013,2 hPa - 0,0 km/h (0 Bft) - - 9,1 °C 13,8 °C
_ Max-Zeit 10:31 07:53 07:36 00:01 08:39 - - 10:24 10:31
Maximum _ 19,5 °C 81 % 1014,4 hPa 0,0 l/m² 5,4 km/h
SO (1 Bft)
- - 12,1 °C 19,5 °C
Durchschnitt _ 15,5 °C 72 % 1013,8 hPa #0,0 l/m² 0,2 km/h (0 Bft) SO - 10,3 °C 15,5 °C